Time;durP1;ratioP1;P1;durP2;ratioP2;P2;SDS_P1;SDS_P2;PMS_P1;PMS_P2;Temp;Humidity;BMP_temperature;BMP_pressure;BME280_temperature;BME280_humidity;BME280_pressure;Samples;Min_cycle;Max_cycle;Signal;HPM_P1;HPM_P2
2022/01/10 00:00:22;;;;;;;0.00;0.00;;;;;;;;;;5019561;28;20211;-68
2022/01/10 00:02:50;;;;;;;0.00;0.00;;;;;;;;;;5018452;28;20223;-68
2022/01/10 00:05:18;;;;;;;0.00;0.00;;;;;;;;;;5017874;28;20220;-69
2022/01/10 00:07:46;;;;;;;0.00;0.00;;;;;;;;;;5023048;28;20725;-69
2022/01/10 00:10:14;;;;;;;0.00;0.00;;;;;;;;;;5026474;28;20207;-69
2022/01/10 00:12:42;;;;;;;0.00;0.00;;;;;;;;;;5025029;28;20572;-71
2022/01/10 00:15:10;;;;;;;0.07;0.07;;;;;;;;;;5017984;28;20208;-68
2022/01/10 00:17:38;;;;;;;0.00;0.00;;;;;;;;;;5017650;28;20197;-68
2022/01/10 00:20:07;;;;;;;0.17;0.17;;;;;;;;;;5017319;28;20204;-69
2022/01/10 00:22:34;;;;;;;0.00;0.00;;;;;;;;;;5018311;28;20254;-69
2022/01/10 00:25:02;;;;;;;0.87;0.87;;;;;;;;;;5017309;28;20228;-69
2022/01/10 00:27:31;;;;;;;0.07;0.07;;;;;;;;;;5025741;28;20581;-68
2022/01/10 00:29:58;;;;;;;0.00;0.00;;;;;;;;;;5024075;28;20580;-69
2022/01/10 00:32:26;;;;;;;0.00;0.00;;;;;;;;;;5023477;28;20200;-69
2022/01/10 00:34:53;;;;;;;0.00;0.00;;;;;;;;;;5024763;28;20212;-68
2022/01/10 00:37:21;;;;;;;0.00;0.00;;;;;;;;;;5023679;28;20619;-70
2022/01/10 00:39:49;;;;;;;0.00;0.00;;;;;;;;;;5023241;28;20669;-69
2022/01/10 00:42:17;;;;;;;0.00;0.00;;;;;;;;;;5024602;28;20571;-69
2022/01/10 00:44:51;;;;;;;0.00;0.00;;;;;;;;;;5021300;28;20315;-68
2022/01/10 00:47:18;;;;;;;0.00;0.00;;;;;;;;;;5020392;28;20207;-68
2022/01/10 00:49:46;;;;;;;0.13;0.13;;;;;;;;;;5023755;28;20216;-69
2022/01/10 00:52:13;;;;;;;5.17;2.23;;;;;;;;;;5026041;28;20200;-69
2022/01/10 00:54:42;;;;;;;0.00;0.00;;;;;;;;;;5023087;28;20292;-69
2022/01/10 00:57:09;;;;;;;0.10;0.10;;;;;;;;;;5023125;28;20283;-69
2022/01/10 00:59:37;;;;;;;0.57;0.10;;;;;;;;;;5024718;28;20228;-69
2022/01/10 01:02:05;;;;;;;0.17;0.17;;;;;;;;;;5027489;28;20212;-68
2022/01/10 01:04:33;;;;;;;2.47;1.40;;;;;;;;;;5020993;28;20207;-68
2022/01/10 01:07:00;;;;;;;0.00;0.00;;;;;;;;;;5023327;28;20219;-69
2022/01/10 01:09:30;;;;;;;0.10;0.10;;;;;;;;;;5023983;28;20795;-68
2022/01/10 01:12:19;;;;;;;0.00;0.00;;;;;;;;;;5020085;28;20665;-68
2022/01/10 01:14:54;;;;;;;0.00;0.00;;;;;;;;;;5020865;28;20354;-68
2022/01/10 01:17:46;;;;;;;0.00;0.00;;;;;;;;;;5023412;28;20561;-69
2022/01/10 01:20:42;;;;;;;0.00;0.00;;;;;;;;;;5023328;28;20205;-67
2022/01/10 01:25:56;;;;;;;0.00;0.00;;;;;;;;;;5027467;28;20293;-68
2022/01/10 01:28:24;;;;;;;0.00;0.00;;;;;;;;;;5028460;28;20608;-68
2022/01/10 01:30:51;;;;;;;0.00;0.00;;;;;;;;;;5027356;28;20204;-68
2022/01/10 01:33:20;;;;;;;0.00;0.00;;;;;;;;;;5027335;28;20192;-68
2022/01/10 01:35:48;;;;;;;0.00;0.00;;;;;;;;;;5023432;28;20239;-69
2022/01/10 01:38:15;;;;;;;0.00;0.00;;;;;;;;;;5024567;28;20204;-69
2022/01/10 01:40:49;;;;;;;0.00;0.00;;;;;;;;;;5026172;28;20200;-70
2022/01/10 01:43:16;;;;;;;0.00;0.00;;;;;;;;;;5025897;28;20625;-69
2022/01/10 01:45:45;;;;;;;0.10;0.10;;;;;;;;;;5028887;28;20624;-70
2022/01/10 01:48:13;;;;;;;0.00;0.00;;;;;;;;;;5027877;28;20216;-70
2022/01/10 01:50:42;;;;;;;2.27;1.83;;;;;;;;;;5025131;28;20213;-68
2022/01/10 01:53:10;;;;;;;0.20;0.20;;;;;;;;;;5025784;28;20591;-69
2022/01/10 01:55:38;;;;;;;0.00;0.00;;;;;;;;;;5028167;28;20201;-68
2022/01/10 01:58:06;;;;;;;0.73;0.73;;;;;;;;;;5026280;28;20236;-68
2022/01/10 02:00:33;;;;;;;0.00;0.00;;;;;;;;;;5025890;28;20673;-67
2022/01/10 02:03:01;;;;;;;0.00;0.00;;;;;;;;;;5029252;28;22537;-68
2022/01/10 02:05:28;;;;;;;0.10;0.10;;;;;;;;;;5029946;28;20602;-68
2022/01/10 02:07:57;;;;;;;0.10;0.10;;;;;;;;;;5027434;28;20208;-68
2022/01/10 02:10:25;;;;;;;0.30;0.30;;;;;;;;;;5029196;28;20208;-68
2022/01/10 02:12:52;;;;;;;0.10;0.10;;;;;;;;;;5026020;28;20673;-68
2022/01/10 02:15:32;;;;;;;2.10;0.97;;;;;;;;;;5027021;28;20220;-68
2022/01/10 02:18:00;;;;;;;0.33;0.33;;;;;;;;;;5026847;28;20750;-68
2022/01/10 02:20:30;;;;;;;10.00;5.00;;;;;;;;;;5025597;28;20201;-69
2022/01/10 02:22:58;;;;;;;2.27;2.17;;;;;;;;;;5026996;28;20284;-69
2022/01/10 02:25:26;;;;;;;0.70;0.70;;;;;;;;;;5025784;28;20234;-69
2022/01/10 02:27:53;;;;;;;0.47;0.47;;;;;;;;;;5025171;28;20239;-69
2022/01/10 02:30:21;;;;;;;0.20;0.20;;;;;;;;;;5024975;28;20211;-69
2022/01/10 02:32:49;;;;;;;0.57;0.57;;;;;;;;;;5025493;28;20600;-69
2022/01/10 02:35:20;;;;;;;2.60;1.70;;;;;;;;;;5022885;28;20197;-69
2022/01/10 02:37:51;;;;;;;1.03;1.00;;;;;;;;;;5026400;28;20196;-68
2022/01/10 02:40:20;;;;;;;1.10;1.07;;;;;;;;;;5024790;28;20279;-68
2022/01/10 02:42:47;;;;;;;2.60;2.43;;;;;;;;;;5025600;28;20215;-68
2022/01/10 02:45:15;;;;;;;0.23;0.23;;;;;;;;;;5022460;28;20224;-69
2022/01/10 02:47:43;;;;;;;0.07;0.07;;;;;;;;;;5025543;28;20291;-69
2022/01/10 02:50:11;;;;;;;0.10;0.10;;;;;;;;;;5027006;28;20208;-68
2022/01/10 02:52:39;;;;;;;0.83;0.83;;;;;;;;;;5026019;28;20196;-69
2022/01/10 02:55:09;;;;;;;0.20;0.20;;;;;;;;;;5029548;28;20200;-68
2022/01/10 02:57:37;;;;;;;0.67;0.67;;;;;;;;;;5027248;28;20204;-68
2022/01/10 03:00:07;;;;;;;0.77;0.77;;;;;;;;;;5025819;28;20209;-68
2022/01/10 03:02:35;;;;;;;1.60;1.50;;;;;;;;;;5027214;28;20200;-69
2022/01/10 03:05:03;;;;;;;0.17;0.17;;;;;;;;;;5022886;28;20205;-68
2022/01/10 03:07:30;;;;;;;2.13;1.93;;;;;;;;;;5024285;28;20296;-68
2022/01/10 03:09:58;;;;;;;2.40;2.30;;;;;;;;;;5025422;28;20200;-68
2022/01/10 03:12:30;;;;;;;0.90;0.90;;;;;;;;;;5022836;28;20663;-69
2022/01/10 03:14:58;;;;;;;0.40;0.40;;;;;;;;;;5023954;28;20286;-67
2022/01/10 03:17:25;;;;;;;1.83;1.60;;;;;;;;;;5025459;28;20672;-67
2022/01/10 03:19:52;;;;;;;0.97;0.97;;;;;;;;;;5025755;28;20215;-70
2022/01/10 03:22:20;;;;;;;0.57;0.57;;;;;;;;;;5025058;28;20213;-68
2022/01/10 03:24:47;;;;;;;0.83;0.83;;;;;;;;;;5023439;28;20551;-68
2022/01/10 03:27:15;;;;;;;0.03;0.03;;;;;;;;;;5026141;28;20243;-68
2022/01/10 03:29:43;;;;;;;0.73;0.73;;;;;;;;;;5023923;28;20207;-68
2022/01/10 03:32:11;;;;;;;0.33;0.33;;;;;;;;;;5025458;28;20200;-68
2022/01/10 03:34:39;;;;;;;0.20;0.20;;;;;;;;;;5023979;28;20204;-69
2022/01/10 03:37:06;;;;;;;1.47;1.37;;;;;;;;;;5026760;28;20693;-68
2022/01/10 03:39:35;;;;;;;0.00;0.00;;;;;;;;;;5024702;28;20240;-67
2022/01/10 03:42:02;;;;;;;0.33;0.33;;;;;;;;;;5026292;28;22520;-67
2022/01/10 03:44:30;;;;;;;0.10;0.10;;;;;;;;;;5030832;28;20204;-68
2022/01/10 03:46:59;;;;;;;0.10;0.10;;;;;;;;;;5028026;28;20225;-70
2022/01/10 03:49:26;;;;;;;0.20;0.20;;;;;;;;;;5025248;28;20211;-69
2022/01/10 03:51:53;;;;;;;0.77;0.70;;;;;;;;;;5022133;28;20249;-68
2022/01/10 03:54:21;;;;;;;1.70;0.60;;;;;;;;;;5025154;28;20223;-68
2022/01/10 03:56:48;;;;;;;0.77;0.77;;;;;;;;;;5023762;28;20196;-67
2022/01/10 03:59:15;;;;;;;0.83;0.83;;;;;;;;;;5024015;28;20232;-69
2022/01/10 04:01:43;;;;;;;1.70;1.60;;;;;;;;;;5024957;28;20212;-68
2022/01/10 04:04:12;;;;;;;0.67;0.67;;;;;;;;;;5023480;28;20564;-67
2022/01/10 04:06:41;;;;;;;0.77;0.77;;;;;;;;;;5017803;28;20254;-68
2022/01/10 04:09:08;;;;;;;0.00;0.00;;;;;;;;;;5020164;28;20215;-70
2022/01/10 04:11:35;;;;;;;0.67;0.67;;;;;;;;;;5020743;28;20220;-70
2022/01/10 04:14:03;;;;;;;2.30;1.77;;;;;;;;;;5015857;28;20772;-69
2022/01/10 04:16:30;;;;;;;1.93;1.80;;;;;;;;;;5016217;28;20211;-69
2022/01/10 04:18:57;;;;;;;0.00;0.00;;;;;;;;;;5022047;28;20204;-69
2022/01/10 04:21:26;;;;;;;0.43;0.43;;;;;;;;;;5023486;28;20211;-69
2022/01/10 04:23:53;;;;;;;0.20;0.20;;;;;;;;;;5024102;28;20211;-68
2022/01/10 04:26:21;;;;;;;0.00;0.00;;;;;;;;;;5025605;28;20574;-69
2022/01/10 04:28:48;;;;;;;0.00;0.00;;;;;;;;;;5023688;28;20199;-68
2022/01/10 04:31:16;;;;;;;0.37;0.37;;;;;;;;;;5024296;28;20196;-69
2022/01/10 04:33:43;;;;;;;0.30;0.30;;;;;;;;;;5023902;28;20570;-69
2022/01/10 04:36:11;;;;;;;0.00;0.00;;;;;;;;;;5025239;28;20200;-69
2022/01/10 04:38:42;;;;;;;0.53;0.53;;;;;;;;;;5021114;28;20319;-69
2022/01/10 04:41:10;;;;;;;0.43;0.43;;;;;;;;;;5023500;28;20263;-70
2022/01/10 04:43:38;;;;;;;0.00;0.00;;;;;;;;;;5023569;28;20223;-69
2022/01/10 04:46:05;;;;;;;0.00;0.00;;;;;;;;;;5024768;28;20726;-69
2022/01/10 04:48:33;;;;;;;0.10;0.10;;;;;;;;;;5022747;28;20584;-69
2022/01/10 04:51:12;;;;;;;0.00;0.00;;;;;;;;;;5023695;28;20205;-69
2022/01/10 04:53:42;;;;;;;1.27;1.23;;;;;;;;;;5023405;28;20200;-70
2022/01/10 04:56:10;;;;;;;0.00;0.00;;;;;;;;;;5024698;28;20287;-70
2022/01/10 04:58:37;;;;;;;0.00;0.00;;;;;;;;;;5026495;28;20236;-67
2022/01/10 05:01:05;;;;;;;0.00;0.00;;;;;;;;;;5026357;28;20255;-67
2022/01/10 05:03:32;;;;;;;0.00;0.00;;;;;;;;;;5020481;28;20215;-69
2022/01/10 05:06:00;;;;;;;0.00;0.00;;;;;;;;;;5020729;28;20247;-69
2022/01/10 05:08:27;;;;;;;0.00;0.00;;;;;;;;;;5019237;28;20204;-70
2022/01/10 05:10:56;;;;;;;0.00;0.00;;;;;;;;;;5022448;28;20199;-69
2022/01/10 05:13:24;;;;;;;0.00;0.00;;;;;;;;;;5021736;28;20208;-69
2022/01/10 05:15:52;;;;;;;1.07;1.03;;;;;;;;;;5020210;28;20205;-69
2022/01/10 05:18:19;;;;;;;0.37;0.37;;;;;;;;;;5025597;28;20683;-69
2022/01/10 05:20:47;;;;;;;0.00;0.00;;;;;;;;;;5027512;28;20216;-68
2022/01/10 05:23:15;;;;;;;0.20;0.20;;;;;;;;;;5030690;28;20585;-68
2022/01/10 05:25:42;;;;;;;0.00;0.00;;;;;;;;;;5025959;28;20572;-68
2022/01/10 05:28:12;;;;;;;0.00;0.00;;;;;;;;;;5034718;28;20625;-70
2022/01/10 05:30:40;;;;;;;0.00;0.00;;;;;;;;;;5027786;28;20201;-68
2022/01/10 05:33:08;;;;;;;0.00;0.00;;;;;;;;;;5027226;28;20743;-69
2022/01/10 05:35:36;;;;;;;0.83;0.83;;;;;;;;;;5028713;28;20786;-67
2022/01/10 05:38:04;;;;;;;0.00;0.00;;;;;;;;;;5027807;28;20246;-70
2022/01/10 05:40:31;;;;;;;0.10;0.10;;;;;;;;;;5021040;28;20577;-70
2022/01/10 05:42:59;;;;;;;0.00;0.00;;;;;;;;;;5021873;28;20200;-69
2022/01/10 05:45:28;;;;;;;0.00;0.00;;;;;;;;;;5020825;28;20792;-69
2022/01/10 05:47:55;;;;;;;0.57;0.57;;;;;;;;;;5020771;28;20232;-69
2022/01/10 05:50:33;;;;;;;0.10;0.10;;;;;;;;;;5020586;28;20200;-69
2022/01/10 05:53:01;;;;;;;0.10;0.10;;;;;;;;;;5019886;28;20716;-69
2022/01/10 05:55:29;;;;;;;0.00;0.00;;;;;;;;;;5020496;28;20207;-69
2022/01/10 05:57:57;;;;;;;0.00;0.00;;;;;;;;;;5019376;28;20231;-68
2022/01/10 06:00:24;;;;;;;0.00;0.00;;;;;;;;;;5019694;28;21842;-69
2022/01/10 06:02:53;;;;;;;0.00;0.00;;;;;;;;;;5018699;28;20267;-69
2022/01/10 06:05:21;;;;;;;0.00;0.00;;;;;;;;;;5021862;28;20212;-69
2022/01/10 06:07:48;;;;;;;0.00;0.00;;;;;;;;;;5019657;28;20240;-67
2022/01/10 06:10:15;;;;;;;0.00;0.00;;;;;;;;;;5021062;28;20193;-68
2022/01/10 06:12:43;;;;;;;0.00;0.00;;;;;;;;;;5019871;28;20208;-68
2022/01/10 06:15:10;;;;;;;0.00;0.00;;;;;;;;;;5021652;28;20211;-68
2022/01/10 06:17:38;;;;;;;1.33;1.33;;;;;;;;;;5020881;28;20223;-70
2022/01/10 06:20:07;;;;;;;0.17;0.17;;;;;;;;;;5019987;28;20212;-69
2022/01/10 06:22:35;;;;;;;4.37;4.17;;;;;;;;;;5019317;28;20326;-69
2022/01/10 06:25:02;;;;;;;0.67;0.67;;;;;;;;;;5020700;28;20245;-69
2022/01/10 06:27:30;;;;;;;0.00;0.00;;;;;;;;;;5021756;28;20235;-69
2022/01/10 06:29:57;;;;;;;0.30;0.30;;;;;;;;;;5018626;28;20802;-69
2022/01/10 06:32:24;;;;;;;0.67;0.67;;;;;;;;;;5026222;28;20559;-68
2022/01/10 06:34:52;;;;;;;0.10;0.10;;;;;;;;;;5022316;28;20656;-69
2022/01/10 06:37:21;;;;;;;0.10;0.10;;;;;;;;;;5020760;28;20205;-70
2022/01/10 06:39:49;;;;;;;0.17;0.17;;;;;;;;;;5017756;28;20581;-70
2022/01/10 06:42:16;;;;;;;0.40;0.33;;;;;;;;;;5021100;28;20204;-69
2022/01/10 06:44:44;;;;;;;0.20;0.20;;;;;;;;;;5020044;28;20672;-69
2022/01/10 06:47:11;;;;;;;0.10;0.10;;;;;;;;;;5020000;28;20232;-69
2022/01/10 06:49:39;;;;;;;0.27;0.27;;;;;;;;;;5019648;28;20212;-69
2022/01/10 06:52:07;;;;;;;0.53;0.53;;;;;;;;;;5024037;28;20670;-68
2022/01/10 06:54:36;;;;;;;1.70;1.60;;;;;;;;;;5023621;28;20677;-69
2022/01/10 06:57:03;;;;;;;0.33;0.33;;;;;;;;;;5025298;28;20209;-69
2022/01/10 06:59:31;;;;;;;0.00;0.00;;;;;;;;;;5025375;28;20234;-70
2022/01/10 07:01:58;;;;;;;1.17;1.17;;;;;;;;;;5021238;28;20331;-69
2022/01/10 07:04:26;;;;;;;2.17;2.00;;;;;;;;;;5018482;28;20212;-70
2022/01/10 07:06:54;;;;;;;2.37;1.80;;;;;;;;;;5023719;28;20220;-69
2022/01/10 07:09:22;;;;;;;1.27;0.97;;;;;;;;;;5018429;28;20211;-70
2022/01/10 07:11:50;;;;;;;0.00;0.00;;;;;;;;;;5016488;28;20208;-69
2022/01/10 07:14:18;;;;;;;3.87;3.67;;;;;;;;;;5019316;28;20204;-69
2022/01/10 07:16:48;;;;;;;0.63;0.63;;;;;;;;;;5018186;28;20847;-68
2022/01/10 07:19:16;;;;;;;2.13;1.93;;;;;;;;;;5019061;28;20561;-68
2022/01/10 07:21:43;;;;;;;0.43;0.40;;;;;;;;;;5017377;28;20239;-68
2022/01/10 07:24:11;;;;;;;0.80;0.80;;;;;;;;;;5019864;28;20197;-68
2022/01/10 07:26:39;;;;;;;0.10;0.10;;;;;;;;;;5017479;28;20224;-68
2022/01/10 07:29:08;;;;;;;0.97;0.97;;;;;;;;;;5020823;28;20208;-69
2022/01/10 07:31:35;;;;;;;0.63;0.63;;;;;;;;;;5025382;28;20200;-68
2022/01/10 07:34:03;;;;;;;0.67;0.67;;;;;;;;;;5023994;28;20208;-68
2022/01/10 07:36:30;;;;;;;0.00;0.00;;;;;;;;;;5027866;28;20204;-68
2022/01/10 07:38:58;;;;;;;0.83;0.83;;;;;;;;;;5016803;28;20221;-68
2022/01/10 07:41:25;;;;;;;1.67;1.60;;;;;;;;;;5016300;28;20200;-69
2022/01/10 07:43:56;;;;;;;0.30;0.30;;;;;;;;;;5018035;28;20282;-68
2022/01/10 07:46:25;;;;;;;0.37;0.37;;;;;;;;;;5017434;28;20617;-69
2022/01/10 07:48:54;;;;;;;0.10;0.10;;;;;;;;;;5018986;28;20677;-68
2022/01/10 07:51:21;;;;;;;0.73;0.73;;;;;;;;;;5018794;28;20212;-69
2022/01/10 07:53:48;;;;;;;0.40;0.40;;;;;;;;;;5016360;28;20212;-69
2022/01/10 07:56:16;;;;;;;0.40;0.40;;;;;;;;;;5019757;28;20218;-71
2022/01/10 07:58:46;;;;;;;0.60;0.60;;;;;;;;;;5019143;28;20240;-69
2022/01/10 08:01:14;;;;;;;3.97;3.67;;;;;;;;;;5018605;28;20207;-69
2022/01/10 08:03:42;;;;;;;0.30;0.30;;;;;;;;;;5019006;28;20208;-69
2022/01/10 08:06:10;;;;;;;1.30;1.20;;;;;;;;;;5017356;28;20209;-69
2022/01/10 08:08:37;;;;;;;0.67;0.67;;;;;;;;;;5017172;28;20220;-69
2022/01/10 08:11:05;;;;;;;1.70;1.60;;;;;;;;;;5018737;28;20200;-69
2022/01/10 08:13:32;;;;;;;0.83;0.83;;;;;;;;;;5019069;28;20200;-69
2022/01/10 08:16:00;;;;;;;0.87;0.87;;;;;;;;;;5017485;28;20677;-67
2022/01/10 08:18:30;;;;;;;0.00;0.00;;;;;;;;;;5017347;28;20655;-68
2022/01/10 08:20:59;;;;;;;0.30;0.30;;;;;;;;;;5013388;28;20207;-67
2022/01/10 08:23:26;;;;;;;5.53;2.97;;;;;;;;;;5016836;28;20211;-69
2022/01/10 08:25:53;;;;;;;0.00;0.00;;;;;;;;;;5020819;28;20213;-69
2022/01/10 08:28:22;;;;;;;1.07;0.97;;;;;;;;;;5027082;28;20232;-70
2022/01/10 08:30:50;;;;;;;2.10;1.07;;;;;;;;;;5029825;28;20200;-70
2022/01/10 08:33:17;;;;;;;6.80;6.40;;;;;;;;;;5024470;28;20610;-69
2022/01/10 08:35:45;;;;;;;1.77;1.57;;;;;;;;;;5022269;28;20192;-69
2022/01/10 08:38:14;;;;;;;3.47;1.13;;;;;;;;;;5021903;28;20203;-69
2022/01/10 08:40:41;;;;;;;0.30;0.30;;;;;;;;;;5017825;28;20202;-69
2022/01/10 08:43:11;;;;;;;0.47;0.47;;;;;;;;;;5020583;28;20201;-68
2022/01/10 08:45:39;;;;;;;0.50;0.50;;;;;;;;;;5019792;28;20200;-70
2022/01/10 08:48:06;;;;;;;0.07;0.07;;;;;;;;;;5019282;28;20255;-70
2022/01/10 08:50:34;;;;;;;0.53;0.53;;;;;;;;;;5019393;28;20695;-76
2022/01/10 08:53:02;;;;;;;0.00;0.00;;;;;;;;;;5024703;28;20208;-73
2022/01/10 08:55:31;;;;;;;0.77;0.77;;;;;;;;;;5025926;28;20235;-75
2022/01/10 08:58:01;;;;;;;0.00;0.00;;;;;;;;;;5021558;28;20236;-73
2022/01/10 09:00:28;;;;;;;0.00;0.00;;;;;;;;;;5020763;28;20290;-70
2022/01/10 09:02:56;;;;;;;0.00;0.00;;;;;;;;;;5012652;28;20200;-71
2022/01/10 09:05:24;;;;;;;0.00;0.00;;;;;;;;;;5016963;28;20214;-75
2022/01/10 09:07:52;;;;;;;0.83;0.30;;;;;;;;;;5018435;28;20223;-73
2022/01/10 09:10:20;;;;;;;0.00;0.00;;;;;;;;;;5020913;28;20208;-71
2022/01/10 09:12:48;;;;;;;0.60;0.60;;;;;;;;;;5014135;28;20208;-72
2022/01/10 09:15:16;;;;;;;0.27;0.27;;;;;;;;;;5019518;28;20208;-71
2022/01/10 09:17:44;;;;;;;0.77;0.63;;;;;;;;;;5019221;28;20580;-69
2022/01/10 09:20:11;;;;;;;2.27;1.37;;;;;;;;;;5018955;28;20204;-70
2022/01/10 09:22:39;;;;;;;3.03;2.47;;;;;;;;;;5017611;28;20205;-70
2022/01/10 09:25:07;;;;;;;0.30;0.30;;;;;;;;;;5018519;28;20208;-70
2022/01/10 09:27:35;;;;;;;2.43;2.33;;;;;;;;;;5014366;28;20228;-71
2022/01/10 09:30:03;;;;;;;1.10;1.03;;;;;;;;;;5015812;28;20208;-74
2022/01/10 09:32:31;;;;;;;1.20;0.67;;;;;;;;;;5014353;28;20204;-71
2022/01/10 09:34:58;;;;;;;1.40;1.00;;;;;;;;;;5014100;28;20925;-71
2022/01/10 09:37:27;;;;;;;0.93;0.87;;;;;;;;;;5016215;28;20212;-73
2022/01/10 09:39:54;;;;;;;0.00;0.00;;;;;;;;;;5019603;28;20201;-74
2022/01/10 09:42:22;;;;;;;0.73;0.73;;;;;;;;;;5019969;28;20569;-71
2022/01/10 09:44:50;;;;;;;0.97;0.97;;;;;;;;;;5020551;28;20208;-75
2022/01/10 09:47:19;;;;;;;0.90;0.90;;;;;;;;;;5023253;28;20219;-72
2022/01/10 09:49:47;;;;;;;1.30;0.80;;;;;;;;;;5021425;28;20220;-72
2022/01/10 09:52:16;;;;;;;0.73;0.40;;;;;;;;;;5025374;28;20204;-70
2022/01/10 09:54:43;;;;;;;3.57;3.27;;;;;;;;;;5027491;28;20207;-76
2022/01/10 09:57:18;;;;;;;0.53;0.53;;;;;;;;;;5024420;28;20246;-72
2022/01/10 09:59:49;;;;;;;2.43;2.27;;;;;;;;;;5027123;28;20263;-68
2022/01/10 10:02:29;;;;;;;0.37;0.37;;;;;;;;;;5020852;28;20212;-71
2022/01/10 10:05:07;;;;;;;1.00;0.90;;;;;;;;;;5024489;28;20204;-75
2022/01/10 10:07:44;;;;;;;4.23;3.13;;;;;;;;;;5021892;28;20224;-77
2022/01/10 10:10:14;;;;;;;2.70;2.47;;;;;;;;;;5019052;28;20651;-70
2022/01/10 10:12:42;;;;;;;0.13;0.13;;;;;;;;;;5022747;28;20240;-72
2022/01/10 10:15:12;;;;;;;0.00;0.00;;;;;;;;;;5019300;28;20209;-76
2022/01/10 10:17:42;;;;;;;1.30;1.20;;;;;;;;;;5016266;28;20210;-70
2022/01/10 10:20:10;;;;;;;3.70;3.00;;;;;;;;;;5018382;28;20208;-70
2022/01/10 10:22:40;;;;;;;1.37;1.27;;;;;;;;;;5015195;28;20239;-70
2022/01/10 10:25:08;;;;;;;2.87;2.67;;;;;;;;;;5019439;28;20209;-69
2022/01/10 10:27:39;;;;;;;1.73;1.50;;;;;;;;;;5021415;28;20601;-72
2022/01/10 10:30:09;;;;;;;5.00;3.40;;;;;;;;;;5023224;28;20595;-71
2022/01/10 10:32:36;;;;;;;4.23;3.77;;;;;;;;;;5021542;28;20200;-72
2022/01/10 10:35:08;;;;;;;0.67;0.57;;;;;;;;;;5022577;28;20215;-72
2022/01/10 10:37:37;;;;;;;0.00;0.00;;;;;;;;;;5018995;28;20201;-71
2022/01/10 10:40:06;;;;;;;1.30;1.30;;;;;;;;;;5022605;28;20642;-70
2022/01/10 10:42:34;;;;;;;2.53;2.33;;;;;;;;;;5021996;28;20196;-70
2022/01/10 10:45:03;;;;;;;1.60;1.50;;;;;;;;;;5024238;28;20292;-71
2022/01/10 10:47:31;;;;;;;2.27;2.10;;;;;;;;;;5013562;28;20204;-72
2022/01/10 10:49:59;;;;;;;7.73;5.27;;;;;;;;;;5016969;28;20204;-71
2022/01/10 10:52:33;;;;;;;2.43;2.27;;;;;;;;;;5014743;28;20204;-69
2022/01/10 10:55:05;;;;;;;5.07;3.50;;;;;;;;;;5014882;28;20204;-74
2022/01/10 10:57:33;;;;;;;3.07;2.80;;;;;;;;;;5015682;28;20210;-71
2022/01/10 11:00:01;;;;;;;5.20;4.70;;;;;;;;;;5023767;28;20254;-72
2022/01/10 11:02:29;;;;;;;2.27;2.10;;;;;;;;;;5017967;28;20213;-69
2022/01/10 11:04:58;;;;;;;0.53;0.53;;;;;;;;;;5018374;28;20215;-70
2022/01/10 11:07:27;;;;;;;3.13;1.63;;;;;;;;;;5018726;28;20286;-69
2022/01/10 11:09:56;;;;;;;3.00;2.87;;;;;;;;;;5017819;28;20266;-69
2022/01/10 11:12:24;;;;;;;1.57;1.30;;;;;;;;;;5020026;28;20707;-69
2022/01/10 11:14:52;;;;;;;3.53;2.37;;;;;;;;;;5014036;28;20748;-67
2022/01/10 11:17:21;;;;;;;2.53;1.90;;;;;;;;;;5016026;28;20343;-71
2022/01/10 11:20:03;;;;;;;4.20;3.87;;;;;;;;;;5016786;28;20213;-70
2022/01/10 11:22:31;;;;;;;8.13;6.10;;;;;;;;;;5018908;28;20211;-72
2022/01/10 11:25:02;;;;;;;8.33;5.07;;;;;;;;;;5025039;28;20212;-70
2022/01/10 11:27:31;;;;;;;2.80;2.63;;;;;;;;;;5018645;28;20485;-67
2022/01/10 11:29:59;;;;;;;1.40;1.30;;;;;;;;;;5016717;28;20239;-70
2022/01/10 11:32:45;;;;;;;3.70;1.20;;;;;;;;;;5013843;28;20227;-72
2022/01/10 11:35:13;;;;;;;7.80;4.20;;;;;;;;;;5015282;28;20208;-72
2022/01/10 11:37:40;;;;;;;4.17;3.10;;;;;;;;;;5014242;28;20255;-70
2022/01/10 11:40:11;;;;;;;6.40;4.07;;;;;;;;;;5020716;28;20661;-69
2022/01/10 11:42:44;;;;;;;6.77;4.47;;;;;;;;;;5019579;28;20229;-70
2022/01/10 11:45:13;;;;;;;0.00;0.00;;;;;;;;;;5023527;28;20276;-70
2022/01/10 11:47:55;;;;;;;0.23;0.23;;;;;;;;;;5020978;28;22307;-70
2022/01/10 11:50:26;;;;;;;4.30;3.37;;;;;;;;;;5018339;28;20208;-70
2022/01/10 11:52:55;;;;;;;1.83;1.67;;;;;;;;;;5019724;28;20262;-70
2022/01/10 11:55:32;;;;;;;3.27;2.73;;;;;;;;;;5020008;28;20212;-70
2022/01/10 11:58:15;;;;;;;3.83;1.27;;;;;;;;;;5019852;28;20224;-70
2022/01/10 12:00:42;;;;;;;6.10;3.50;;;;;;;;;;5022995;28;20211;-69
2022/01/10 12:03:10;;;;;;;6.67;3.50;;;;;;;;;;5029270;28;20205;-70
2022/01/10 12:05:37;;;;;;;3.77;3.17;;;;;;;;;;5027960;28;21301;-70
2022/01/10 12:08:05;;;;;;;1.97;1.63;;;;;;;;;;5025525;28;21464;-69
2022/01/10 12:10:34;;;;;;;2.23;1.90;;;;;;;;;;5027951;28;20549;-70
2022/01/10 12:13:03;;;;;;;1.70;1.60;;;;;;;;;;5028372;28;20657;-70
2022/01/10 12:15:31;;;;;;;0.57;0.57;;;;;;;;;;5024466;28;20196;-71
2022/01/10 12:17:59;;;;;;;3.03;1.50;;;;;;;;;;5030276;28;20204;-71
2022/01/10 12:20:26;;;;;;;5.40;2.93;;;;;;;;;;5028255;28;20204;-70
2022/01/10 12:22:54;;;;;;;2.40;1.60;;;;;;;;;;5024391;28;20554;-70
2022/01/10 12:25:21;;;;;;;4.63;3.37;;;;;;;;;;5022650;28;20232;-75
2022/01/10 12:27:51;;;;;;;2.27;1.60;;;;;;;;;;5025065;28;20193;-74
2022/01/10 12:30:22;;;;;;;1.17;1.17;;;;;;;;;;5023223;28;20228;-69
2022/01/10 12:32:49;;;;;;;1.83;1.00;;;;;;;;;;5023262;28;20219;-71
2022/01/10 12:35:17;;;;;;;1.33;1.23;;;;;;;;;;5028125;28;20200;-73
2022/01/10 12:37:44;;;;;;;0.10;0.10;;;;;;;;;;5015614;28;20208;-72
2022/01/10 12:40:13;;;;;;;3.43;3.13;;;;;;;;;;5017871;28;20227;-74
2022/01/10 12:42:41;;;;;;;2.20;1.77;;;;;;;;;;5028551;28;20219;-71
2022/01/10 12:45:11;;;;;;;0.00;0.00;;;;;;;;;;5019831;28;20231;-73
2022/01/10 12:47:44;;;;;;;1.30;0.53;;;;;;;;;;5018884;28;20291;-72
2022/01/10 12:50:12;;;;;;;2.27;2.07;;;;;;;;;;5029428;28;20224;-70
2022/01/10 12:52:40;;;;;;;2.17;2.03;;;;;;;;;;5029437;28;20208;-67
2022/01/10 12:55:08;;;;;;;4.53;2.77;;;;;;;;;;5026809;28;20212;-73
2022/01/10 12:57:36;;;;;;;1.17;0.67;;;;;;;;;;5027639;28;20200;-71
2022/01/10 13:00:05;;;;;;;0.07;0.07;;;;;;;;;;5030010;28;20580;-70
2022/01/10 13:02:34;;;;;;;2.13;1.33;;;;;;;;;;5026716;28;20204;-69
2022/01/10 13:05:07;;;;;;;0.87;0.87;;;;;;;;;;5028144;28;20208;-71
2022/01/10 13:07:34;;;;;;;6.70;3.93;;;;;;;;;;5028761;28;20669;-75
2022/01/10 13:10:06;;;;;;;0.97;0.77;;;;;;;;;;5029294;28;20228;-77
2022/01/10 13:12:34;;;;;;;2.53;2.10;;;;;;;;;;5019364;28;20243;-74
2022/01/10 13:15:06;;;;;;;0.40;0.40;;;;;;;;;;5017310;28;20196;-71
2022/01/10 13:17:35;;;;;;;0.63;0.63;;;;;;;;;;5021846;28;20196;-76
2022/01/10 13:20:04;;;;;;;0.43;0.43;;;;;;;;;;5033281;28;20241;-72
2022/01/10 13:22:35;;;;;;;3.20;2.13;;;;;;;;;;5034326;28;21393;-70
2022/01/10 13:25:03;;;;;;;0.00;0.00;;;;;;;;;;5033856;28;20201;-74
2022/01/10 13:27:33;;;;;;;2.00;1.90;;;;;;;;;;5032690;28;20204;-77
2022/01/10 13:30:11;;;;;;;3.03;2.57;;;;;;;;;;5031273;28;20232;-75
2022/01/10 13:32:42;;;;;;;0.63;0.63;;;;;;;;;;5034286;28;20215;-77
2022/01/10 13:35:11;;;;;;;0.00;0.00;;;;;;;;;;5023438;28;20278;-73
2022/01/10 13:37:40;;;;;;;2.10;1.83;;;;;;;;;;5021485;28;20212;-72
2022/01/10 13:40:09;;;;;;;0.20;0.20;;;;;;;;;;5032124;28;20283;-73
2022/01/10 13:42:46;;;;;;;1.20;1.10;;;;;;;;;;5031964;28;20207;-74
2022/01/10 13:45:14;;;;;;;5.40;2.50;;;;;;;;;;5023545;28;20246;-74
2022/01/10 13:48:02;;;;;;;2.63;0.80;;;;;;;;;;5031438;28;20598;-74
2022/01/10 13:50:32;;;;;;;1.20;1.07;;;;;;;;;;5015467;28;20221;-72
2022/01/10 13:53:11;;;;;;;2.03;1.60;;;;;;;;;;5024364;28;20196;-73
2022/01/10 13:55:39;;;;;;;2.77;1.63;;;;;;;;;;5027747;28;20204;-73
2022/01/10 13:58:08;;;;;;;3.00;2.60;;;;;;;;;;5029796;28;20321;-74
2022/01/10 14:00:38;;;;;;;5.93;2.53;;;;;;;;;;5029853;28;20545;-73
2022/01/10 14:03:06;;;;;;;0.20;0.20;;;;;;;;;;5025879;28;20208;-74
2022/01/10 14:05:36;;;;;;;0.60;0.60;;;;;;;;;;5028489;28;20291;-73
2022/01/10 14:08:03;;;;;;;4.30;2.37;;;;;;;;;;5027915;28;20557;-73
2022/01/10 14:10:31;;;;;;;0.10;0.10;;;;;;;;;;5030102;28;20224;-73
2022/01/10 14:12:59;;;;;;;0.70;0.70;;;;;;;;;;5029848;28;20568;-72
2022/01/10 14:15:27;;;;;;;0.50;0.50;;;;;;;;;;5028422;28;20208;-72
2022/01/10 14:17:54;;;;;;;1.07;1.00;;;;;;;;;;5029326;28;20838;-73
2022/01/10 14:20:22;;;;;;;0.00;0.00;;;;;;;;;;5025457;28;20242;-73
2022/01/10 14:22:51;;;;;;;1.07;0.83;;;;;;;;;;5026815;28;20657;-74
2022/01/10 14:25:20;;;;;;;0.20;0.10;;;;;;;;;;5028434;28;20200;-73
2022/01/10 14:27:49;;;;;;;0.00;0.00;;;;;;;;;;5028511;28;20601;-72
2022/01/10 14:30:17;;;;;;;0.67;0.40;;;;;;;;;;5028308;28;20232;-72
2022/01/10 14:32:47;;;;;;;1.10;1.10;;;;;;;;;;5027704;28;20640;-73
2022/01/10 14:35:15;;;;;;;0.00;0.00;;;;;;;;;;5022431;28;20255;-74
2022/01/10 14:37:42;;;;;;;0.23;0.23;;;;;;;;;;5025905;28;20234;-72
2022/01/10 14:40:11;;;;;;;0.80;0.80;;;;;;;;;;5032580;28;20200;-73
2022/01/10 14:42:39;;;;;;;0.20;0.20;;;;;;;;;;5034211;28;20192;-72
2022/01/10 14:45:10;;;;;;;1.03;1.03;;;;;;;;;;5034674;28;20219;-73
2022/01/10 14:47:37;;;;;;;2.90;1.70;;;;;;;;;;5034348;28;20193;-72
2022/01/10 14:50:05;;;;;;;4.97;1.47;;;;;;;;;;5033780;28;20213;-71
2022/01/10 14:52:32;;;;;;;4.60;3.37;;;;;;;;;;5032628;28;20201;-71
2022/01/10 14:55:00;;;;;;;1.63;1.53;;;;;;;;;;5033384;28;20207;-71